sensor_id;sensor_type;location;lat;lon;timestamp;P1;durP1;ratioP1;P2;durP2;ratioP2
14470;SDS011;7321;50.802;4.336;2023-12-07T00:01:14;35.60;;;20.03;;
14470;SDS011;7321;50.802;4.336;2023-12-07T00:03:40;37.37;;;20.30;;
14470;SDS011;7321;50.802;4.336;2023-12-07T00:06:06;36.50;;;19.57;;
14470;SDS011;7321;50.802;4.336;2023-12-07T00:08:32;36.27;;;19.60;;
14470;SDS011;7321;50.802;4.336;2023-12-07T00:10:58;33.57;;;18.30;;
14470;SDS011;7321;50.802;4.336;2023-12-07T00:13:23;34.93;;;19.37;;
14470;SDS011;7321;50.802;4.336;2023-12-07T00:15:49;32.90;;;18.03;;
14470;SDS011;7321;50.802;4.336;2023-12-07T00:18:15;35.47;;;19.50;;
14470;SDS011;7321;50.802;4.336;2023-12-07T00:20:41;34.30;;;18.37;;
14470;SDS011;7321;50.802;4.336;2023-12-07T00:23:07;31.03;;;18.20;;
14470;SDS011;7321;50.802;4.336;2023-12-07T00:25:33;35.23;;;18.60;;
14470;SDS011;7321;50.802;4.336;2023-12-07T00:27:59;32.90;;;18.17;;
14470;SDS011;7321;50.802;4.336;2023-12-07T00:30:25;35.73;;;18.73;;
14470;SDS011;7321;50.802;4.336;2023-12-07T00:32:50;31.57;;;17.80;;
14470;SDS011;7321;50.802;4.336;2023-12-07T00:35:16;30.73;;;18.47;;
14470;SDS011;7321;50.802;4.336;2023-12-07T00:37:43;35.13;;;18.57;;
14470;SDS011;7321;50.802;4.336;2023-12-07T00:40:08;30.70;;;18.33;;
14470;SDS011;7321;50.802;4.336;2023-12-07T00:42:35;33.03;;;18.00;;
14470;SDS011;7321;50.802;4.336;2023-12-07T00:45:01;29.07;;;17.63;;
14470;SDS011;7321;50.802;4.336;2023-12-07T00:47:27;33.33;;;17.83;;
14470;SDS011;7321;50.802;4.336;2023-12-07T00:49:53;34.33;;;18.50;;
14470;SDS011;7321;50.802;4.336;2023-12-07T00:52:19;30.80;;;18.20;;
14470;SDS011;7321;50.802;4.336;2023-12-07T00:54:45;30.70;;;18.93;;
14470;SDS011;7321;50.802;4.336;2023-12-07T00:57:11;31.97;;;17.83;;
14470;SDS011;7321;50.802;4.336;2023-12-07T00:59:36;34.23;;;18.27;;
14470;SDS011;7321;50.802;4.336;2023-12-07T01:02:03;32.77;;;18.67;;
14470;SDS011;7321;50.802;4.336;2023-12-07T01:04:30;29.93;;;17.43;;
14470;SDS011;7321;50.802;4.336;2023-12-07T01:06:56;32.20;;;18.10;;
14470;SDS011;7321;50.802;4.336;2023-12-07T01:09:24;33.73;;;18.70;;
14470;SDS011;7321;50.802;4.336;2023-12-07T01:11:50;34.17;;;19.10;;
14470;SDS011;7321;50.802;4.336;2023-12-07T01:14:16;31.27;;;19.30;;
14470;SDS011;7321;50.802;4.336;2023-12-07T01:16:43;32.80;;;18.97;;
14470;SDS011;7321;50.802;4.336;2023-12-07T01:19:09;32.20;;;19.60;;
14470;SDS011;7321;50.802;4.336;2023-12-07T01:21:35;37.10;;;20.53;;
14470;SDS011;7321;50.802;4.336;2023-12-07T01:24:01;30.93;;;17.97;;
14470;SDS011;7321;50.802;4.336;2023-12-07T01:26:27;32.97;;;18.90;;
14470;SDS011;7321;50.802;4.336;2023-12-07T01:28:53;29.47;;;18.03;;
14470;SDS011;7321;50.802;4.336;2023-12-07T01:31:19;29.80;;;17.07;;
14470;SDS011;7321;50.802;4.336;2023-12-07T01:33:45;31.37;;;18.20;;
14470;SDS011;7321;50.802;4.336;2023-12-07T01:36:11;27.07;;;17.40;;
14470;SDS011;7321;50.802;4.336;2023-12-07T01:38:37;33.40;;;19.03;;
14470;SDS011;7321;50.802;4.336;2023-12-07T01:41:03;32.70;;;19.63;;
14470;SDS011;7321;50.802;4.336;2023-12-07T01:43:29;36.57;;;19.83;;
14470;SDS011;7321;50.802;4.336;2023-12-07T01:45:57;33.50;;;19.47;;
14470;SDS011;7321;50.802;4.336;2023-12-07T01:48:24;32.83;;;18.87;;
14470;SDS011;7321;50.802;4.336;2023-12-07T01:50:54;35.20;;;19.57;;
14470;SDS011;7321;50.802;4.336;2023-12-07T01:53:21;29.83;;;17.50;;
14470;SDS011;7321;50.802;4.336;2023-12-07T01:55:48;30.17;;;17.63;;
14470;SDS011;7321;50.802;4.336;2023-12-07T01:58:17;32.00;;;19.20;;
14470;SDS011;7321;50.802;4.336;2023-12-07T02:00:44;27.97;;;16.23;;
14470;SDS011;7321;50.802;4.336;2023-12-07T02:03:10;28.17;;;17.07;;
14470;SDS011;7321;50.802;4.336;2023-12-07T02:05:37;30.83;;;17.93;;
14470;SDS011;7321;50.802;4.336;2023-12-07T02:08:07;27.60;;;17.57;;
14470;SDS011;7321;50.802;4.336;2023-12-07T02:10:33;28.30;;;16.77;;
14470;SDS011;7321;50.802;4.336;2023-12-07T02:12:59;28.67;;;17.00;;
14470;SDS011;7321;50.802;4.336;2023-12-07T02:15:25;28.63;;;16.67;;
14470;SDS011;7321;50.802;4.336;2023-12-07T02:20:31;27.60;;;15.60;;
14470;SDS011;7321;50.802;4.336;2023-12-07T02:23:04;25.17;;;14.80;;
14470;SDS011;7321;50.802;4.336;2023-12-07T02:25:36;24.83;;;15.27;;
14470;SDS011;7321;50.802;4.336;2023-12-07T02:28:16;24.50;;;15.47;;
14470;SDS011;7321;50.802;4.336;2023-12-07T02:30:42;24.10;;;15.97;;
14470;SDS011;7321;50.802;4.336;2023-12-07T02:33:08;23.60;;;15.23;;
14470;SDS011;7321;50.802;4.336;2023-12-07T02:35:35;22.63;;;13.93;;
14470;SDS011;7321;50.802;4.336;2023-12-07T02:38:06;23.87;;;14.87;;
14470;SDS011;7321;50.802;4.336;2023-12-07T02:40:33;23.07;;;14.90;;
14470;SDS011;7321;50.802;4.336;2023-12-07T02:43:00;23.77;;;14.20;;
14470;SDS011;7321;50.802;4.336;2023-12-07T02:45:28;21.57;;;13.23;;
14470;SDS011;7321;50.802;4.336;2023-12-07T02:47:54;24.33;;;14.70;;
14470;SDS011;7321;50.802;4.336;2023-12-07T02:50:20;25.97;;;14.90;;
14470;SDS011;7321;50.802;4.336;2023-12-07T02:52:46;19.53;;;14.70;;
14470;SDS011;7321;50.802;4.336;2023-12-07T02:55:12;21.73;;;14.30;;
14470;SDS011;7321;50.802;4.336;2023-12-07T02:57:38;20.30;;;14.03;;
14470;SDS011;7321;50.802;4.336;2023-12-07T03:00:04;22.60;;;14.07;;
14470;SDS011;7321;50.802;4.336;2023-12-07T03:02:34;24.27;;;14.50;;
14470;SDS011;7321;50.802;4.336;2023-12-07T03:05:01;24.80;;;15.50;;
14470;SDS011;7321;50.802;4.336;2023-12-07T03:07:26;23.13;;;14.63;;
14470;SDS011;7321;50.802;4.336;2023-12-07T03:09:52;25.83;;;15.77;;
14470;SDS011;7321;50.802;4.336;2023-12-07T03:12:18;22.83;;;15.23;;
14470;SDS011;7321;50.802;4.336;2023-12-07T03:14:44;25.10;;;14.83;;
14470;SDS011;7321;50.802;4.336;2023-12-07T03:17:10;24.37;;;15.73;;
14470;SDS011;7321;50.802;4.336;2023-12-07T03:19:39;21.83;;;14.67;;
14470;SDS011;7321;50.802;4.336;2023-12-07T03:22:05;23.40;;;14.43;;
14470;SDS011;7321;50.802;4.336;2023-12-07T03:24:32;22.43;;;14.40;;
14470;SDS011;7321;50.802;4.336;2023-12-07T03:26:59;21.90;;;14.77;;
14470;SDS011;7321;50.802;4.336;2023-12-07T03:29:25;22.63;;;14.70;;
14470;SDS011;7321;50.802;4.336;2023-12-07T03:31:51;21.10;;;14.10;;
14470;SDS011;7321;50.802;4.336;2023-12-07T03:34:17;22.20;;;13.83;;
14470;SDS011;7321;50.802;4.336;2023-12-07T03:36:46;19.33;;;13.13;;
14470;SDS011;7321;50.802;4.336;2023-12-07T03:39:16;21.47;;;13.00;;
14470;SDS011;7321;50.802;4.336;2023-12-07T03:41:47;16.20;;;12.37;;
14470;SDS011;7321;50.802;4.336;2023-12-07T03:44:13;21.80;;;14.43;;
14470;SDS011;7321;50.802;4.336;2023-12-07T03:46:40;22.17;;;13.03;;
14470;SDS011;7321;50.802;4.336;2023-12-07T03:49:06;20.27;;;13.07;;
14470;SDS011;7321;50.802;4.336;2023-12-07T03:51:32;19.10;;;13.83;;
14470;SDS011;7321;50.802;4.336;2023-12-07T03:53:59;23.00;;;13.40;;
14470;SDS011;7321;50.802;4.336;2023-12-07T03:56:26;22.27;;;14.27;;
14470;SDS011;7321;50.802;4.336;2023-12-07T03:58:53;21.23;;;14.47;;
14470;SDS011;7321;50.802;4.336;2023-12-07T04:03:52;19.80;;;14.50;;
14470;SDS011;7321;50.802;4.336;2023-12-07T04:06:19;21.90;;;14.93;;
14470;SDS011;7321;50.802;4.336;2023-12-07T04:08:46;24.40;;;15.67;;
14470;SDS011;7321;50.802;4.336;2023-12-07T04:11:12;22.87;;;14.33;;
14470;SDS011;7321;50.802;4.336;2023-12-07T04:13:39;20.37;;;14.40;;
14470;SDS011;7321;50.802;4.336;2023-12-07T04:16:06;22.43;;;15.20;;
14470;SDS011;7321;50.802;4.336;2023-12-07T04:18:32;21.17;;;15.00;;
14470;SDS011;7321;50.802;4.336;2023-12-07T04:20:58;22.53;;;14.23;;
14470;SDS011;7321;50.802;4.336;2023-12-07T04:23:24;22.83;;;15.20;;
14470;SDS011;7321;50.802;4.336;2023-12-07T04:25:50;18.83;;;13.23;;
14470;SDS011;7321;50.802;4.336;2023-12-07T04:28:16;18.73;;;13.17;;
14470;SDS011;7321;50.802;4.336;2023-12-07T04:30:42;18.70;;;13.03;;
14470;SDS011;7321;50.802;4.336;2023-12-07T04:33:08;17.30;;;12.80;;
14470;SDS011;7321;50.802;4.336;2023-12-07T04:35:34;20.87;;;13.87;;
14470;SDS011;7321;50.802;4.336;2023-12-07T04:38:00;18.27;;;13.57;;
14470;SDS011;7321;50.802;4.336;2023-12-07T04:40:26;19.23;;;13.10;;
14470;SDS011;7321;50.802;4.336;2023-12-07T04:42:52;17.07;;;12.30;;
14470;SDS011;7321;50.802;4.336;2023-12-07T04:45:18;17.07;;;12.33;;
14470;SDS011;7321;50.802;4.336;2023-12-07T04:47:43;19.73;;;13.57;;
14470;SDS011;7321;50.802;4.336;2023-12-07T04:50:10;18.37;;;12.93;;
14470;SDS011;7321;50.802;4.336;2023-12-07T04:52:36;19.70;;;12.80;;
14470;SDS011;7321;50.802;4.336;2023-12-07T04:55:02;19.57;;;14.40;;
14470;SDS011;7321;50.802;4.336;2023-12-07T04:57:28;19.40;;;13.10;;
14470;SDS011;7321;50.802;4.336;2023-12-07T04:59:53;16.03;;;12.73;;
14470;SDS011;7321;50.802;4.336;2023-12-07T05:02:19;19.63;;;12.73;;
14470;SDS011;7321;50.802;4.336;2023-12-07T05:04:45;19.13;;;12.87;;
14470;SDS011;7321;50.802;4.336;2023-12-07T05:07:11;17.40;;;12.67;;
14470;SDS011;7321;50.802;4.336;2023-12-07T05:09:38;19.57;;;13.07;;
14470;SDS011;7321;50.802;4.336;2023-12-07T05:12:04;18.53;;;12.83;;
14470;SDS011;7321;50.802;4.336;2023-12-07T05:14:30;19.13;;;12.57;;
14470;SDS011;7321;50.802;4.336;2023-12-07T05:16:57;18.23;;;13.07;;
14470;SDS011;7321;50.802;4.336;2023-12-07T05:19:23;17.77;;;13.00;;
14470;SDS011;7321;50.802;4.336;2023-12-07T05:21:49;17.97;;;12.90;;
14470;SDS011;7321;50.802;4.336;2023-12-07T05:24:15;19.83;;;12.60;;
14470;SDS011;7321;50.802;4.336;2023-12-07T05:26:41;21.53;;;13.70;;
14470;SDS011;7321;50.802;4.336;2023-12-07T05:29:07;18.73;;;12.50;;
14470;SDS011;7321;50.802;4.336;2023-12-07T05:31:35;19.00;;;12.27;;
14470;SDS011;7321;50.802;4.336;2023-12-07T05:34:02;18.47;;;12.27;;
14470;SDS011;7321;50.802;4.336;2023-12-07T05:36:27;20.40;;;13.23;;
14470;SDS011;7321;50.802;4.336;2023-12-07T05:38:54;19.60;;;13.07;;
14470;SDS011;7321;50.802;4.336;2023-12-07T05:41:20;17.30;;;13.03;;
14470;SDS011;7321;50.802;4.336;2023-12-07T05:43:46;19.47;;;12.77;;
14470;SDS011;7321;50.802;4.336;2023-12-07T05:46:12;19.03;;;12.80;;
14470;SDS011;7321;50.802;4.336;2023-12-07T05:48:38;19.80;;;12.87;;
14470;SDS011;7321;50.802;4.336;2023-12-07T05:51:04;19.43;;;13.13;;
14470;SDS011;7321;50.802;4.336;2023-12-07T05:53:30;18.37;;;12.97;;
14470;SDS011;7321;50.802;4.336;2023-12-07T05:55:58;20.53;;;12.87;;
14470;SDS011;7321;50.802;4.336;2023-12-07T05:58:24;19.70;;;12.77;;
14470;SDS011;7321;50.802;4.336;2023-12-07T06:00:50;18.47;;;12.50;;
14470;SDS011;7321;50.802;4.336;2023-12-07T06:03:16;18.57;;;13.17;;
14470;SDS011;7321;50.802;4.336;2023-12-07T06:05:43;19.20;;;13.37;;
14470;SDS011;7321;50.802;4.336;2023-12-07T06:08:10;16.40;;;12.33;;
14470;SDS011;7321;50.802;4.336;2023-12-07T06:10:36;18.30;;;12.27;;
14470;SDS011;7321;50.802;4.336;2023-12-07T06:13:02;17.57;;;12.20;;
14470;SDS011;7321;50.802;4.336;2023-12-07T06:15:28;17.97;;;12.73;;
14470;SDS011;7321;50.802;4.336;2023-12-07T06:17:54;17.10;;;12.23;;
14470;SDS011;7321;50.802;4.336;2023-12-07T06:20:20;18.70;;;12.53;;
14470;SDS011;7321;50.802;4.336;2023-12-07T06:22:46;17.57;;;11.97;;
14470;SDS011;7321;50.802;4.336;2023-12-07T06:25:11;18.47;;;12.60;;
14470;SDS011;7321;50.802;4.336;2023-12-07T06:27:38;18.53;;;12.67;;
14470;SDS011;7321;50.802;4.336;2023-12-07T06:30:04;20.57;;;13.37;;
14470;SDS011;7321;50.802;4.336;2023-12-07T06:32:31;19.77;;;12.10;;
14470;SDS011;7321;50.802;4.336;2023-12-07T06:34:57;17.50;;;12.57;;
14470;SDS011;7321;50.802;4.336;2023-12-07T06:37:23;20.73;;;12.73;;
14470;SDS011;7321;50.802;4.336;2023-12-07T06:39:49;17.87;;;12.87;;
14470;SDS011;7321;50.802;4.336;2023-12-07T06:42:15;18.33;;;12.30;;
14470;SDS011;7321;50.802;4.336;2023-12-07T06:44:43;18.63;;;12.90;;
14470;SDS011;7321;50.802;4.336;2023-12-07T06:47:11;19.10;;;13.00;;
14470;SDS011;7321;50.802;4.336;2023-12-07T06:49:37;18.17;;;12.10;;
14470;SDS011;7321;50.802;4.336;2023-12-07T06:52:03;20.03;;;12.87;;
14470;SDS011;7321;50.802;4.336;2023-12-07T06:54:29;19.63;;;12.73;;
14470;SDS011;7321;50.802;4.336;2023-12-07T06:56:55;20.00;;;12.87;;
14470;SDS011;7321;50.802;4.336;2023-12-07T06:59:21;17.73;;;11.93;;
14470;SDS011;7321;50.802;4.336;2023-12-07T07:01:47;16.87;;;11.60;;
14470;SDS011;7321;50.802;4.336;2023-12-07T07:04:13;18.93;;;12.60;;
14470;SDS011;7321;50.802;4.336;2023-12-07T07:06:39;18.77;;;11.97;;
14470;SDS011;7321;50.802;4.336;2023-12-07T07:09:06;17.33;;;12.03;;
14470;SDS011;7321;50.802;4.336;2023-12-07T07:11:32;17.13;;;11.67;;
14470;SDS011;7321;50.802;4.336;2023-12-07T07:13:59;17.17;;;12.13;;
14470;SDS011;7321;50.802;4.336;2023-12-07T07:16:25;19.10;;;12.20;;
14470;SDS011;7321;50.802;4.336;2023-12-07T07:18:51;18.10;;;11.57;;
14470;SDS011;7321;50.802;4.336;2023-12-07T07:21:17;16.17;;;12.13;;
14470;SDS011;7321;50.802;4.336;2023-12-07T07:23:45;18.60;;;11.10;;
14470;SDS011;7321;50.802;4.336;2023-12-07T07:26:11;17.13;;;11.50;;
14470;SDS011;7321;50.802;4.336;2023-12-07T07:28:45;17.83;;;12.53;;
14470;SDS011;7321;50.802;4.336;2023-12-07T07:31:10;16.70;;;11.60;;
14470;SDS011;7321;50.802;4.336;2023-12-07T07:33:36;21.20;;;13.47;;
14470;SDS011;7321;50.802;4.336;2023-12-07T07:36:02;18.43;;;12.17;;
14470;SDS011;7321;50.802;4.336;2023-12-07T07:38:28;18.83;;;12.20;;
14470;SDS011;7321;50.802;4.336;2023-12-07T07:40:54;17.03;;;11.43;;
14470;SDS011;7321;50.802;4.336;2023-12-07T07:43:20;17.90;;;12.23;;
14470;SDS011;7321;50.802;4.336;2023-12-07T07:45:47;18.00;;;12.47;;
14470;SDS011;7321;50.802;4.336;2023-12-07T07:48:12;19.03;;;13.37;;
14470;SDS011;7321;50.802;4.336;2023-12-07T07:50:38;17.03;;;12.33;;
14470;SDS011;7321;50.802;4.336;2023-12-07T07:53:04;18.20;;;12.37;;
14470;SDS011;7321;50.802;4.336;2023-12-07T07:55:30;20.93;;;12.50;;
14470;SDS011;7321;50.802;4.336;2023-12-07T07:57:56;16.60;;;12.47;;
14470;SDS011;7321;50.802;4.336;2023-12-07T08:00:22;19.63;;;12.57;;
14470;SDS011;7321;50.802;4.336;2023-12-07T08:02:51;19.93;;;12.17;;
14470;SDS011;7321;50.802;4.336;2023-12-07T08:05:17;21.37;;;11.90;;
14470;SDS011;7321;50.802;4.336;2023-12-07T08:07:43;18.73;;;12.90;;
14470;SDS011;7321;50.802;4.336;2023-12-07T08:10:09;19.07;;;13.07;;
14470;SDS011;7321;50.802;4.336;2023-12-07T08:12:36;18.37;;;12.70;;
14470;SDS011;7321;50.802;4.336;2023-12-07T08:15:01;15.73;;;11.47;;
14470;SDS011;7321;50.802;4.336;2023-12-07T08:17:28;16.67;;;11.80;;
14470;SDS011;7321;50.802;4.336;2023-12-07T08:19:54;19.30;;;12.67;;
14470;SDS011;7321;50.802;4.336;2023-12-07T08:22:20;19.63;;;12.10;;
14470;SDS011;7321;50.802;4.336;2023-12-07T08:24:46;18.53;;;11.70;;
14470;SDS011;7321;50.802;4.336;2023-12-07T08:27:12;17.40;;;11.87;;
14470;SDS011;7321;50.802;4.336;2023-12-07T08:29:39;15.43;;;11.97;;
14470;SDS011;7321;50.802;4.336;2023-12-07T08:32:05;17.50;;;11.80;;
14470;SDS011;7321;50.802;4.336;2023-12-07T08:34:31;16.23;;;11.50;;
14470;SDS011;7321;50.802;4.336;2023-12-07T08:36:57;19.50;;;11.10;;
14470;SDS011;7321;50.802;4.336;2023-12-07T08:39:23;18.73;;;11.50;;
14470;SDS011;7321;50.802;4.336;2023-12-07T08:41:50;16.40;;;11.77;;
14470;SDS011;7321;50.802;4.336;2023-12-07T08:44:16;15.00;;;10.80;;
14470;SDS011;7321;50.802;4.336;2023-12-07T08:46:42;14.30;;;11.03;;
14470;SDS011;7321;50.802;4.336;2023-12-07T08:49:10;17.23;;;10.53;;
14470;SDS011;7321;50.802;4.336;2023-12-07T08:51:36;13.33;;;9.97;;
14470;SDS011;7321;50.802;4.336;2023-12-07T08:54:02;15.27;;;11.10;;
14470;SDS011;7321;50.802;4.336;2023-12-07T08:56:28;16.67;;;10.90;;
14470;SDS011;7321;50.802;4.336;2023-12-07T08:58:53;16.43;;;10.57;;
14470;SDS011;7321;50.802;4.336;2023-12-07T09:01:19;14.97;;;10.70;;
14470;SDS011;7321;50.802;4.336;2023-12-07T09:03:45;13.23;;;10.10;;
14470;SDS011;7321;50.802;4.336;2023-12-07T09:06:11;14.50;;;10.87;;
14470;SDS011;7321;50.802;4.336;2023-12-07T09:08:37;17.23;;;11.07;;
14470;SDS011;7321;50.802;4.336;2023-12-07T09:11:03;16.73;;;10.97;;
14470;SDS011;7321;50.802;4.336;2023-12-07T09:13:29;14.30;;;10.57;;
14470;SDS011;7321;50.802;4.336;2023-12-07T09:15:55;14.47;;;9.43;;
14470;SDS011;7321;50.802;4.336;2023-12-07T09:18:21;17.23;;;11.13;;
14470;SDS011;7321;50.802;4.336;2023-12-07T09:20:47;16.07;;;10.80;;
14470;SDS011;7321;50.802;4.336;2023-12-07T09:23:13;15.63;;;10.57;;
14470;SDS011;7321;50.802;4.336;2023-12-07T09:25:40;13.60;;;10.33;;
14470;SDS011;7321;50.802;4.336;2023-12-07T09:28:06;20.80;;;11.40;;
14470;SDS011;7321;50.802;4.336;2023-12-07T09:30:33;14.37;;;10.43;;
14470;SDS011;7321;50.802;4.336;2023-12-07T09:33:07;15.87;;;10.87;;
14470;SDS011;7321;50.802;4.336;2023-12-07T09:35:33;17.20;;;10.87;;
14470;SDS011;7321;50.802;4.336;2023-12-07T09:37:59;11.63;;;9.30;;
14470;SDS011;7321;50.802;4.336;2023-12-07T09:40:25;17.67;;;10.73;;
14470;SDS011;7321;50.802;4.336;2023-12-07T09:42:52;14.53;;;10.57;;
14470;SDS011;7321;50.802;4.336;2023-12-07T09:45:19;15.50;;;9.63;;
14470;SDS011;7321;50.802;4.336;2023-12-07T09:47:48;12.60;;;9.40;;
14470;SDS011;7321;50.802;4.336;2023-12-07T09:50:19;11.63;;;9.67;;
14470;SDS011;7321;50.802;4.336;2023-12-07T09:52:52;12.60;;;10.07;;
14470;SDS011;7321;50.802;4.336;2023-12-07T09:55:22;13.90;;;9.23;;
14470;SDS011;7321;50.802;4.336;2023-12-07T09:57:48;11.53;;;8.93;;
14470;SDS011;7321;50.802;4.336;2023-12-07T10:00:15;13.50;;;9.30;;
14470;SDS011;7321;50.802;4.336;2023-12-07T10:02:44;13.03;;;8.77;;
14470;SDS011;7321;50.802;4.336;2023-12-07T10:05:11;11.73;;;8.57;;
14470;SDS011;7321;50.802;4.336;2023-12-07T10:07:47;12.07;;;8.23;;
14470;SDS011;7321;50.802;4.336;2023-12-07T10:10:15;13.40;;;8.53;;
14470;SDS011;7321;50.802;4.336;2023-12-07T10:15:18;11.57;;;9.23;;
14470;SDS011;7321;50.802;4.336;2023-12-07T10:17:52;12.30;;;9.20;;
14470;SDS011;7321;50.802;4.336;2023-12-07T10:20:20;13.43;;;8.83;;
14470;SDS011;7321;50.802;4.336;2023-12-07T10:25:38;11.37;;;9.13;;
14470;SDS011;7321;50.802;4.336;2023-12-07T10:28:06;13.37;;;8.43;;
14470;SDS011;7321;50.802;4.336;2023-12-07T10:30:33;12.07;;;8.67;;
14470;SDS011;7321;50.802;4.336;2023-12-07T10:32:59;12.60;;;8.70;;
14470;SDS011;7321;50.802;4.336;2023-12-07T10:35:28;10.57;;;8.37;;
14470;SDS011;7321;50.802;4.336;2023-12-07T10:37:54;11.93;;;9.73;;
14470;SDS011;7321;50.802;4.336;2023-12-07T10:40:20;12.30;;;8.87;;
14470;SDS011;7321;50.802;4.336;2023-12-07T10:42:49;9.27;;;7.80;;
14470;SDS011;7321;50.802;4.336;2023-12-07T10:45:21;9.97;;;7.87;;
14470;SDS011;7321;50.802;4.336;2023-12-07T10:47:51;10.40;;;8.27;;
14470;SDS011;7321;50.802;4.336;2023-12-07T10:50:21;11.33;;;8.10;;
14470;SDS011;7321;50.802;4.336;2023-12-07T10:52:52;12.70;;;8.03;;
14470;SDS011;7321;50.802;4.336;2023-12-07T10:55:20;9.67;;;7.77;;
14470;SDS011;7321;50.802;4.336;2023-12-07T10:57:49;14.70;;;7.40;;
14470;SDS011;7321;50.802;4.336;2023-12-07T11:00:19;10.53;;;7.83;;
14470;SDS011;7321;50.802;4.336;2023-12-07T11:02:49;9.13;;;7.00;;
14470;SDS011;7321;50.802;4.336;2023-12-07T11:05:17;10.83;;;7.43;;
14470;SDS011;7321;50.802;4.336;2023-12-07T11:10:53;10.77;;;8.07;;
14470;SDS011;7321;50.802;4.336;2023-12-07T11:13:32;7.67;;;6.87;;
14470;SDS011;7321;50.802;4.336;2023-12-07T11:16:01;9.43;;;7.17;;
14470;SDS011;7321;50.802;4.336;2023-12-07T11:18:28;8.90;;;6.83;;
14470;SDS011;7321;50.802;4.336;2023-12-07T11:20:55;8.93;;;7.47;;
14470;SDS011;7321;50.802;4.336;2023-12-07T11:23:21;8.93;;;6.97;;
14470;SDS011;7321;50.802;4.336;2023-12-07T11:25:48;7.30;;;5.83;;
14470;SDS011;7321;50.802;4.336;2023-12-07T11:28:15;11.27;;;6.90;;
14470;SDS011;7321;50.802;4.336;2023-12-07T11:30:42;10.13;;;6.80;;
14470;SDS011;7321;50.802;4.336;2023-12-07T11:33:09;11.17;;;6.83;;
14470;SDS011;7321;50.802;4.336;2023-12-07T11:38:28;9.07;;;6.40;;
14470;SDS011;7321;50.802;4.336;2023-12-07T11:40:54;8.03;;;6.03;;
14470;SDS011;7321;50.802;4.336;2023-12-07T11:46:09;9.40;;;6.37;;
14470;SDS011;7321;50.802;4.336;2023-12-07T11:48:36;9.80;;;6.53;;
14470;SDS011;7321;50.802;4.336;2023-12-07T11:51:11;7.77;;;5.97;;
14470;SDS011;7321;50.802;4.336;2023-12-07T11:53:37;9.27;;;6.43;;
14470;SDS011;7321;50.802;4.336;2023-12-07T11:56:07;9.40;;;6.80;;
14470;SDS011;7321;50.802;4.336;2023-12-07T11:58:35;10.67;;;6.50;;
14470;SDS011;7321;50.802;4.336;2023-12-07T12:01:02;8.17;;;5.97;;
14470;SDS011;7321;50.802;4.336;2023-12-07T12:03:30;8.17;;;6.27;;
14470;SDS011;7321;50.802;4.336;2023-12-07T12:06:02;12.40;;;5.93;;
14470;SDS011;7321;50.802;4.336;2023-12-07T12:08:29;8.27;;;6.30;;
14470;SDS011;7321;50.802;4.336;2023-12-07T12:10:56;7.90;;;6.10;;
14470;SDS011;7321;50.802;4.336;2023-12-07T12:13:56;9.63;;;6.17;;
14470;SDS011;7321;50.802;4.336;2023-12-07T12:16:15;6.60;;;5.70;;
14470;SDS011;7321;50.802;4.336;2023-12-07T12:18:41;8.07;;;5.70;;
14470;SDS011;7321;50.802;4.336;2023-12-07T12:21:07;9.23;;;5.70;;
14470;SDS011;7321;50.802;4.336;2023-12-07T12:23:34;10.33;;;5.60;;
14470;SDS011;7321;50.802;4.336;2023-12-07T12:26:00;7.17;;;5.70;;
14470;SDS011;7321;50.802;4.336;2023-12-07T12:28:27;8.33;;;6.40;;
14470;SDS011;7321;50.802;4.336;2023-12-07T12:30:54;8.57;;;5.40;;
14470;SDS011;7321;50.802;4.336;2023-12-07T12:33:20;6.03;;;5.50;;
14470;SDS011;7321;50.802;4.336;2023-12-07T12:35:46;7.83;;;5.90;;
14470;SDS011;7321;50.802;4.336;2023-12-07T12:38:12;7.20;;;5.97;;
14470;SDS011;7321;50.802;4.336;2023-12-07T12:40:38;8.13;;;6.40;;
14470;SDS011;7321;50.802;4.336;2023-12-07T12:43:06;10.20;;;6.23;;
14470;SDS011;7321;50.802;4.336;2023-12-07T12:45:33;8.47;;;6.50;;
14470;SDS011;7321;50.802;4.336;2023-12-07T12:47:59;7.00;;;5.90;;
14470;SDS011;7321;50.802;4.336;2023-12-07T12:53:05;7.23;;;5.97;;
14470;SDS011;7321;50.802;4.336;2023-12-07T12:55:33;9.73;;;6.53;;
14470;SDS011;7321;50.802;4.336;2023-12-07T12:58:00;7.47;;;6.00;;
14470;SDS011;7321;50.802;4.336;2023-12-07T13:00:29;8.63;;;6.20;;
14470;SDS011;7321;50.802;4.336;2023-12-07T13:02:56;9.03;;;6.30;;
14470;SDS011;7321;50.802;4.336;2023-12-07T13:05:22;10.80;;;6.70;;
14470;SDS011;7321;50.802;4.336;2023-12-07T13:07:48;8.53;;;6.27;;
14470;SDS011;7321;50.802;4.336;2023-12-07T13:10:15;8.13;;;6.00;;
14470;SDS011;7321;50.802;4.336;2023-12-07T13:12:41;9.63;;;6.10;;
14470;SDS011;7321;50.802;4.336;2023-12-07T13:15:07;9.17;;;6.27;;
14470;SDS011;7321;50.802;4.336;2023-12-07T13:17:34;7.23;;;5.40;;
14470;SDS011;7321;50.802;4.336;2023-12-07T13:20:00;9.03;;;5.97;;
14470;SDS011;7321;50.802;4.336;2023-12-07T13:22:26;8.03;;;6.40;;
14470;SDS011;7321;50.802;4.336;2023-12-07T13:24:52;8.93;;;6.00;;
14470;SDS011;7321;50.802;4.336;2023-12-07T13:27:19;7.40;;;5.77;;
14470;SDS011;7321;50.802;4.336;2023-12-07T13:29:45;8.03;;;6.17;;
14470;SDS011;7321;50.802;4.336;2023-12-07T13:32:11;7.97;;;5.87;;
14470;SDS011;7321;50.802;4.336;2023-12-07T13:34:37;8.17;;;5.80;;
14470;SDS011;7321;50.802;4.336;2023-12-07T13:37:03;8.20;;;5.77;;
14470;SDS011;7321;50.802;4.336;2023-12-07T13:39:30;7.23;;;6.37;;
14470;SDS011;7321;50.802;4.336;2023-12-07T13:41:56;7.70;;;5.50;;
14470;SDS011;7321;50.802;4.336;2023-12-07T13:44:22;6.17;;;5.23;;
14470;SDS011;7321;50.802;4.336;2023-12-07T13:46:49;7.17;;;5.87;;
14470;SDS011;7321;50.802;4.336;2023-12-07T13:49:15;6.30;;;5.40;;
14470;SDS011;7321;50.802;4.336;2023-12-07T13:51:41;7.30;;;5.60;;
14470;SDS011;7321;50.802;4.336;2023-12-07T13:54:07;7.57;;;5.30;;
14470;SDS011;7321;50.802;4.336;2023-12-07T13:56:34;6.83;;;5.60;;
14470;SDS011;7321;50.802;4.336;2023-12-07T13:59:00;12.50;;;6.10;;
14470;SDS011;7321;50.802;4.336;2023-12-07T14:01:26;9.60;;;6.20;;
14470;SDS011;7321;50.802;4.336;2023-12-07T14:03:52;7.37;;;5.80;;
14470;SDS011;7321;50.802;4.336;2023-12-07T14:06:21;8.10;;;5.67;;
14470;SDS011;7321;50.802;4.336;2023-12-07T14:08:51;8.40;;;5.93;;
14470;SDS011;7321;50.802;4.336;2023-12-07T14:11:17;6.13;;;5.23;;
14470;SDS011;7321;50.802;4.336;2023-12-07T14:13:43;8.03;;;5.37;;
14470;SDS011;7321;50.802;4.336;2023-12-07T14:16:12;6.90;;;5.53;;
14470;SDS011;7321;50.802;4.336;2023-12-07T14:18:38;8.73;;;5.60;;
14470;SDS011;7321;50.802;4.336;2023-12-07T14:21:03;8.90;;;5.77;;
14470;SDS011;7321;50.802;4.336;2023-12-07T14:23:29;6.20;;;5.60;;
14470;SDS011;7321;50.802;4.336;2023-12-07T14:25:55;9.43;;;6.00;;
14470;SDS011;7321;50.802;4.336;2023-12-07T14:28:24;8.20;;;6.17;;
14470;SDS011;7321;50.802;4.336;2023-12-07T14:30:53;10.73;;;6.53;;
14470;SDS011;7321;50.802;4.336;2023-12-07T14:33:22;8.03;;;5.67;;
14470;SDS011;7321;50.802;4.336;2023-12-07T14:35:48;6.47;;;5.30;;
14470;SDS011;7321;50.802;4.336;2023-12-07T14:38:14;8.77;;;6.27;;
14470;SDS011;7321;50.802;4.336;2023-12-07T14:40:40;7.53;;;6.33;;
14470;SDS011;7321;50.802;4.336;2023-12-07T14:43:06;6.33;;;5.30;;
14470;SDS011;7321;50.802;4.336;2023-12-07T14:45:32;8.03;;;5.97;;
14470;SDS011;7321;50.802;4.336;2023-12-07T14:47:58;7.67;;;5.73;;
14470;SDS011;7321;50.802;4.336;2023-12-07T14:50:24;8.47;;;5.93;;
14470;SDS011;7321;50.802;4.336;2023-12-07T14:52:50;8.43;;;6.23;;
14470;SDS011;7321;50.802;4.336;2023-12-07T14:55:16;9.73;;;6.03;;
14470;SDS011;7321;50.802;4.336;2023-12-07T14:57:44;7.40;;;5.73;;
14470;SDS011;7321;50.802;4.336;2023-12-07T15:00:10;7.73;;;5.47;;
14470;SDS011;7321;50.802;4.336;2023-12-07T15:02:37;9.13;;;6.30;;